createdAt,value
2018-07-21T00:00:26.896Z,21.38
2018-07-21T00:01:35.554Z,21.38
2018-07-21T00:02:44.204Z,21.33
2018-07-21T00:03:52.846Z,21.29
2018-07-21T00:05:01.495Z,21.25
2018-07-21T00:06:10.140Z,21.25
2018-07-21T00:07:18.799Z,21.15
2018-07-21T00:08:27.446Z,21.2
2018-07-21T00:09:36.096Z,21.13
2018-07-21T00:10:44.736Z,21.07
2018-07-21T00:11:53.398Z,21.04
2018-07-21T00:13:02.044Z,21.1
2018-07-21T00:14:10.734Z,21.03
2018-07-21T00:15:19.342Z,20.9
2018-07-21T00:16:27.999Z,20.88
2018-07-21T00:17:36.908Z,20.86
2018-07-21T00:18:45.558Z,20.9
2018-07-21T00:19:54.196Z,20.77
2018-07-21T00:21:02.851Z,20.85
2018-07-21T00:22:11.505Z,20.74
2018-07-21T00:23:20.154Z,20.67
2018-07-21T00:24:28.807Z,20.6
2018-07-21T00:25:37.451Z,20.63
2018-07-21T00:26:46.104Z,20.52
2018-07-21T00:27:55.021Z,20.56
2018-07-21T00:29:03.670Z,20.64
2018-07-21T00:30:12.318Z,20.52
2018-07-21T00:31:20.969Z,20.59
2018-07-21T00:32:29.617Z,20.49
2018-07-21T00:33:38.267Z,20.52
2018-07-21T00:34:46.915Z,20.46
2018-07-21T00:35:55.569Z,20.32
2018-07-21T00:37:04.217Z,20.29
2018-07-21T00:38:12.873Z,20.4
2018-07-21T00:39:21.520Z,20.3
2018-07-21T00:40:30.173Z,20.27
2018-07-21T00:41:38.816Z,20.18
2018-07-21T00:42:47.461Z,20.17
2018-07-21T00:43:56.113Z,20.26
2018-07-21T00:45:04.761Z,20.18
2018-07-21T00:46:13.409Z,20.22
2018-07-21T00:47:22.052Z,20.27
2018-07-21T00:48:30.707Z,20.19
2018-07-21T00:49:39.356Z,20.19
2018-07-21T00:50:48.004Z,20.22
2018-07-21T00:51:56.641Z,20.17
2018-07-21T00:53:05.556Z,20.21
2018-07-21T00:54:14.468Z,20.22
2018-07-21T00:55:23.119Z,20.26
2018-07-21T00:56:31.762Z,20.22
2018-07-21T00:57:40.426Z,20.26
2018-07-21T00:58:49.069Z,20.15
2018-07-21T00:59:57.993Z,20.11
2018-07-21T01:01:06.645Z,20.14
2018-07-21T01:02:15.551Z,20.1
2018-07-21T01:03:24.200Z,20.02
2018-07-21T01:04:32.848Z,20.08
2018-07-21T01:05:41.501Z,20.02
2018-07-21T01:06:50.410Z,20.03
2018-07-21T01:07:59.059Z,20.1
2018-07-21T01:09:07.709Z,19.93
2018-07-21T01:10:16.361Z,19.97
2018-07-21T01:11:25.004Z,19.93
2018-07-21T01:12:33.654Z,19.94
2018-07-21T01:13:42.299Z,19.9
2018-07-21T01:14:50.950Z,19.82
2018-07-21T01:15:59.596Z,19.72
2018-07-21T01:17:08.245Z,19.72
2018-07-21T01:18:16.893Z,19.67
2018-07-21T01:19:25.539Z,19.72
2018-07-21T01:20:34.191Z,19.64
2018-07-21T01:21:42.838Z,19.57
2018-07-21T01:22:51.488Z,19.59
2018-07-21T01:24:00.400Z,19.47
2018-07-21T01:25:09.308Z,19.55
2018-07-21T01:26:17.951Z,19.48
2018-07-21T01:27:26.598Z,19.38
2018-07-21T01:28:35.252Z,19.44
2018-07-21T01:29:44.157Z,19.45
2018-07-21T01:30:52.808Z,19.32
2018-07-21T01:32:01.455Z,19.34
2018-07-21T01:33:10.370Z,19.23
2018-07-21T01:34:19.017Z,19.26
2018-07-21T01:35:27.663Z,19.2
2018-07-21T01:36:36.837Z,19.15
2018-07-21T01:37:45.746Z,19.16
2018-07-21T01:38:54.665Z,19.22
2018-07-21T01:40:03.313Z,19.23
2018-07-21T01:41:11.963Z,19.16
2018-07-21T01:42:20.606Z,19.12
2018-07-21T01:43:29.258Z,19.26
2018-07-21T01:44:37.905Z,19.32
2018-07-21T01:45:46.555Z,19.3
2018-07-21T01:46:55.199Z,19.23
2018-07-21T01:48:03.851Z,19.24
2018-07-21T01:49:12.495Z,19.29
2018-07-21T01:50:21.143Z,19.32
2018-07-21T01:51:29.786Z,19.41
2018-07-21T01:52:38.438Z,19.44
2018-07-21T01:53:47.085Z,19.41
2018-07-21T01:54:55.736Z,19.44
2018-07-21T01:56:04.385Z,19.48
2018-07-21T01:57:13.028Z,19.52
2018-07-21T01:58:21.676Z,19.52
2018-07-21T01:59:30.321Z,19.52
2018-07-21T02:00:38.974Z,19.48
2018-07-21T02:01:47.617Z,19.53
2018-07-21T02:02:56.267Z,19.49
2018-07-21T02:04:05.189Z,19.55
2018-07-21T02:05:13.839Z,19.56
2018-07-21T02:06:22.483Z,19.55
2018-07-21T02:07:31.136Z,19.48
2018-07-21T02:08:39.777Z,19.42
2018-07-21T02:09:48.432Z,19.6
2018-07-21T02:10:57.077Z,19.59
2018-07-21T02:12:05.725Z,19.53
2018-07-21T02:13:14.369Z,19.6
2018-07-21T02:14:23.012Z,19.57
2018-07-21T02:15:31.665Z,19.57
2018-07-21T02:16:40.313Z,19.47
2018-07-21T02:17:48.966Z,19.48
2018-07-21T02:18:57.870Z,19.48
2018-07-21T02:20:06.525Z,19.42
2018-07-21T02:21:15.173Z,19.57
2018-07-21T02:22:24.087Z,19.48
2018-07-21T02:23:32.729Z,19.52
2018-07-21T02:24:41.656Z,19.48
2018-07-21T02:25:50.302Z,19.53
2018-07-21T02:26:58.962Z,19.47
2018-07-21T02:28:07.591Z,19.49
2018-07-21T02:29:16.240Z,19.52
2018-07-21T02:30:24.925Z,19.48
2018-07-21T02:31:33.850Z,19.48
2018-07-21T02:32:42.502Z,19.48
2018-07-21T02:33:51.438Z,19.48
2018-07-21T02:35:00.356Z,19.49
2018-07-21T02:36:08.999Z,19.39
2018-07-21T02:37:17.655Z,19.44
2018-07-21T02:38:26.561Z,19.34
2018-07-21T02:39:35.215Z,19.42
2018-07-21T02:40:44.133Z,19.44
2018-07-21T02:41:53.325Z,19.41
2018-07-21T02:43:02.486Z,19.44
2018-07-21T02:44:11.142Z,19.37
2018-07-21T02:45:19.788Z,19.32
2018-07-21T02:46:28.710Z,19.29
2018-07-21T02:47:37.362Z,19.38
2018-07-21T02:48:46.005Z,19.27
2018-07-21T02:49:54.649Z,19.26
2018-07-21T02:51:03.826Z,19.32
2018-07-21T02:52:12.482Z,19.34
2018-07-21T02:53:21.125Z,19.23
2018-07-21T02:54:29.777Z,19.29
2018-07-21T02:55:38.420Z,19.29
2018-07-21T02:56:47.079Z,19.32
2018-07-21T02:57:55.724Z,19.26
2018-07-21T02:59:04.379Z,19.35
2018-07-21T03:00:13.281Z,19.23
2018-07-21T03:01:22.029Z,19.23
2018-07-21T03:02:31.220Z,19.26
2018-07-21T03:03:40.861Z,19.22
2018-07-21T03:04:49.909Z,19.34
2018-07-21T03:05:58.563Z,19.32
2018-07-21T03:07:07.216Z,19.37
2018-07-21T03:08:15.923Z,19.26
2018-07-21T03:09:24.785Z,19.3
2018-07-21T03:10:33.429Z,19.19
2018-07-21T03:11:42.079Z,19.26
2018-07-21T03:12:50.725Z,19.24
2018-07-21T03:13:59.652Z,19.3
2018-07-21T03:15:08.561Z,19.23
2018-07-21T03:16:17.221Z,19.2
2018-07-21T03:17:26.130Z,19.3
2018-07-21T03:18:35.051Z,19.3
2018-07-21T03:19:43.962Z,19.23
2018-07-21T03:20:52.910Z,19.34
2018-07-21T03:22:01.536Z,19.34
2018-07-21T03:23:10.489Z,19.26
2018-07-21T03:24:19.109Z,19.3
2018-07-21T03:25:28.038Z,19.27
2018-07-21T03:26:36.681Z,19.16
2018-07-21T03:27:45.604Z,19.23
2018-07-21T03:28:54.250Z,19.26
2018-07-21T03:30:02.898Z,19.22
2018-07-21T03:31:11.558Z,19.23
2018-07-21T03:32:20.208Z,19.23
2018-07-21T03:33:28.860Z,19.3
2018-07-21T03:34:37.508Z,19.16
2018-07-21T03:35:46.154Z,19.29
2018-07-21T03:36:54.800Z,19.16
2018-07-21T03:38:03.451Z,19.16
2018-07-21T03:39:12.098Z,19.15
2018-07-21T03:40:21.008Z,19.19
2018-07-21T03:41:29.924Z,19.17
2018-07-21T03:42:38.843Z,19.29
2018-07-21T03:43:48.021Z,19.07
2018-07-21T03:44:56.670Z,19.15
2018-07-21T03:46:05.321Z,19.16
2018-07-21T03:47:13.966Z,19.12
2018-07-21T03:48:22.614Z,19.3
2018-07-21T03:49:31.261Z,19.26
2018-07-21T03:50:40.178Z,19.17
2018-07-21T03:51:48.821Z,19.23
2018-07-21T03:52:57.730Z,19.22
2018-07-21T03:54:06.378Z,19.22
2018-07-21T03:55:15.390Z,19.24
2018-07-21T03:56:24.295Z,19.24
2018-07-21T03:57:32.947Z,19.24
2018-07-21T03:58:41.593Z,19.27
2018-07-21T03:59:50.249Z,19.24
2018-07-21T04:00:59.160Z,19.12
2018-07-21T04:02:07.804Z,19.19
2018-07-21T04:03:16.450Z,19.16
2018-07-21T04:04:25.370Z,19.11
2018-07-21T04:05:34.014Z,19.23
2018-07-21T04:06:42.665Z,19.27
2018-07-21T04:07:51.314Z,19.26
2018-07-21T04:08:59.988Z,19.24
2018-07-21T04:10:08.611Z,19.24
2018-07-21T04:11:17.260Z,19.23
2018-07-21T04:12:25.907Z,19.29
2018-07-21T04:13:34.553Z,19.24
2018-07-21T04:14:43.202Z,19.34
2018-07-21T04:15:51.847Z,19.26
2018-07-21T04:17:00.499Z,19.3
2018-07-21T04:18:09.139Z,19.26
2018-07-21T04:19:17.790Z,19.27
2018-07-21T04:20:26.443Z,19.26
2018-07-21T04:21:35.098Z,19.29
2018-07-21T04:22:44.012Z,19.24
2018-07-21T04:23:52.651Z,19.26
2018-07-21T04:25:01.304Z,19.22
2018-07-21T04:26:10.232Z,19.29
2018-07-21T04:27:19.154Z,19.26
2018-07-21T04:28:27.799Z,19.24
2018-07-21T04:29:36.452Z,19.17
2018-07-21T04:30:45.097Z,19.11
2018-07-21T04:31:53.754Z,19.19
2018-07-21T04:33:02.682Z,19.23
2018-07-21T04:34:11.570Z,19.15
2018-07-21T04:35:20.217Z,19.15
2018-07-21T04:36:29.140Z,19.16
2018-07-21T04:37:37.786Z,19.2
2018-07-21T04:38:46.430Z,19.2
2018-07-21T04:39:55.081Z,19.12
2018-07-21T04:41:03.723Z,19.16
2018-07-21T04:42:12.382Z,19.08
2018-07-21T04:43:21.561Z,19.08
2018-07-21T04:44:30.212Z,19.07
2018-07-21T04:45:38.850Z,19.11
2018-07-21T04:46:47.511Z,19.11
2018-07-21T04:47:56.415Z,19.16
2018-07-21T04:49:05.073Z,19.16
2018-07-21T04:50:13.706Z,19.11
2018-07-21T04:51:22.364Z,19.08
2018-07-21T04:52:31.273Z,19.16
2018-07-21T04:53:39.925Z,19.12
2018-07-21T04:54:48.564Z,19.15
2018-07-21T04:55:57.215Z,19.09
2018-07-21T04:57:05.868Z,19
2018-07-21T04:58:14.518Z,19.09
2018-07-21T04:59:23.169Z,19.11
2018-07-21T05:00:32.076Z,19.09
2018-07-21T05:01:40.725Z,19.19
2018-07-21T05:02:49.368Z,19.07
2018-07-21T05:03:58.025Z,19.22
2018-07-21T05:05:06.925Z,19.11
2018-07-21T05:06:15.577Z,19.15
2018-07-21T05:07:24.568Z,19.17
2018-07-21T05:08:33.176Z,19.16
2018-07-21T05:09:41.814Z,19.11
2018-07-21T05:10:50.463Z,19.29
2018-07-21T05:11:59.111Z,19.22
2018-07-21T05:13:08.036Z,19.24
2018-07-21T05:14:16.682Z,19.23
2018-07-21T05:15:25.329Z,19.3
2018-07-21T05:16:34.248Z,19.34
2018-07-21T05:17:42.899Z,19.32
2018-07-21T05:18:52.060Z,19.35
2018-07-21T05:20:01.062Z,19.35
2018-07-21T05:21:09.691Z,19.35
2018-07-21T05:22:18.347Z,19.44
2018-07-21T05:23:26.996Z,19.48
2018-07-21T05:24:35.639Z,19.47
2018-07-21T05:25:44.285Z,19.44
2018-07-21T05:26:53.210Z,19.49
2018-07-21T05:28:01.850Z,19.42
2018-07-21T05:29:11.291Z,19.42
2018-07-21T05:30:19.934Z,19.48
2018-07-21T05:31:28.591Z,19.53
2018-07-21T05:32:37.236Z,19.57
2018-07-21T05:33:45.879Z,19.62
2018-07-21T05:34:54.523Z,19.62
2018-07-21T05:36:03.169Z,19.66
2018-07-21T05:37:11.829Z,19.7
2018-07-21T05:38:20.477Z,19.71
2018-07-21T05:39:29.132Z,19.66
2018-07-21T05:40:38.033Z,19.72
2018-07-21T05:41:46.691Z,19.75
2018-07-21T05:42:55.336Z,19.79
2018-07-21T05:44:03.991Z,19.79
2018-07-21T05:45:12.667Z,19.89
2018-07-21T05:46:21.550Z,19.78
2018-07-21T05:47:30.195Z,19.89
2018-07-21T05:48:38.844Z,19.94
2018-07-21T05:49:47.749Z,19.99
2018-07-21T05:50:56.398Z,20.02
2018-07-21T05:52:05.053Z,20.08
2018-07-21T05:53:14.042Z,20
2018-07-21T05:54:22.619Z,20.1
2018-07-21T05:55:31.262Z,20.07
2018-07-21T05:56:39.911Z,20.02
2018-07-21T05:57:48.556Z,20.15
2018-07-21T05:58:57.214Z,20.19
2018-07-21T06:00:05.857Z,20.17
2018-07-21T06:01:14.512Z,20.04
2018-07-21T06:02:23.675Z,20.04
2018-07-21T06:03:32.329Z,20.12
2018-07-21T06:04:40.969Z,20.17
2018-07-21T06:05:49.622Z,20.12
2018-07-21T06:06:58.532Z,20.19
2018-07-21T06:08:07.452Z,20.22
2018-07-21T06:09:16.094Z,20.3
2018-07-21T06:10:24.740Z,20.27
2018-07-21T06:11:33.387Z,20.22
2018-07-21T06:12:42.034Z,20.32
2018-07-21T06:13:50.689Z,20.36
2018-07-21T06:14:59.337Z,20.37
2018-07-21T06:16:07.991Z,20.37
2018-07-21T06:17:16.895Z,20.48
2018-07-21T06:18:25.546Z,20.49
2018-07-21T06:19:34.520Z,20.59
2018-07-21T06:20:43.117Z,20.6
2018-07-21T06:21:51.761Z,20.58
2018-07-21T06:23:00.414Z,20.58
2018-07-21T06:24:09.060Z,20.63
2018-07-21T06:25:17.833Z,20.55
2018-07-21T06:26:26.891Z,20.59
2018-07-21T06:27:35.811Z,20.55
2018-07-21T06:28:44.460Z,20.64
2018-07-21T06:29:53.112Z,20.66
2018-07-21T06:31:01.764Z,20.64
2018-07-21T06:32:10.669Z,20.59
2018-07-21T06:33:19.317Z,20.59
2018-07-21T06:34:27.970Z,20.59
2018-07-21T06:35:36.623Z,20.6
2018-07-21T06:36:45.265Z,20.66
2018-07-21T06:37:53.913Z,20.63
2018-07-21T06:39:02.561Z,20.63
2018-07-21T06:40:11.215Z,20.66
2018-07-21T06:41:19.858Z,20.6
2018-07-21T06:42:28.509Z,20.63
2018-07-21T06:43:37.155Z,20.59
2018-07-21T06:44:45.808Z,20.59
2018-07-21T06:45:54.457Z,20.56
2018-07-21T06:47:03.106Z,20.6
2018-07-21T06:48:11.755Z,20.59
2018-07-21T06:49:20.665Z,20.56
2018-07-21T06:50:29.318Z,20.59
2018-07-21T06:51:37.967Z,20.63
2018-07-21T06:52:46.616Z,20.59
2018-07-21T06:53:55.527Z,20.59
2018-07-21T06:55:04.450Z,20.55
2018-07-21T06:56:13.103Z,20.68
2018-07-21T06:57:21.754Z,20.7
2018-07-21T06:58:30.400Z,20.7
2018-07-21T06:59:39.050Z,20.68
2018-07-21T07:00:47.697Z,20.82
2018-07-21T07:01:56.348Z,20.89
2018-07-21T07:03:04.994Z,20.74
2018-07-21T07:04:13.647Z,20.85
2018-07-21T07:05:22.302Z,20.88
2018-07-21T07:06:30.948Z,20.9
2018-07-21T07:07:39.607Z,21.03
2018-07-21T07:08:48.248Z,21.03
2018-07-21T07:09:56.896Z,21.01
2018-07-21T07:11:05.543Z,21.04
2018-07-21T07:12:14.195Z,21.11
2018-07-21T07:13:22.845Z,21.15
2018-07-21T07:14:31.495Z,21.14
2018-07-21T07:15:40.146Z,21.17
2018-07-21T07:16:48.787Z,21.22
2018-07-21T07:17:57.462Z,21.19
2018-07-21T07:19:06.100Z,21.15
2018-07-21T07:20:14.753Z,21.17
2018-07-21T07:21:23.399Z,21.3
2018-07-21T07:22:32.050Z,21.22
2018-07-21T07:23:40.973Z,21.22
2018-07-21T07:24:49.624Z,21.25
2018-07-21T07:25:58.277Z,21.25
2018-07-21T07:27:06.920Z,21.32
2018-07-21T07:28:15.578Z,21.43
2018-07-21T07:29:24.225Z,21.37
2018-07-21T07:30:32.880Z,21.51
2018-07-21T07:31:41.522Z,21.65
2018-07-21T07:32:50.173Z,21.66
2018-07-21T07:33:58.820Z,21.89
2018-07-21T07:35:07.523Z,21.91
2018-07-21T07:36:16.468Z,21.99
2018-07-21T07:37:25.120Z,21.94
2018-07-21T07:38:33.773Z,21.99
2018-07-21T07:39:42.427Z,21.97
2018-07-21T07:40:51.073Z,21.96
2018-07-21T07:41:59.719Z,21.84
2018-07-21T07:43:08.366Z,21.78
2018-07-21T07:44:17.024Z,21.92
2018-07-21T07:45:25.946Z,21.88
2018-07-21T07:46:34.594Z,21.88
2018-07-21T07:47:43.509Z,21.88
2018-07-21T07:48:52.151Z,21.89
2018-07-21T07:50:00.814Z,21.92
2018-07-21T07:51:09.458Z,21.94
2018-07-21T07:52:18.374Z,21.89
2018-07-21T07:53:27.093Z,21.88
2018-07-21T07:54:35.675Z,21.83
2018-07-21T07:55:44.323Z,21.88
2018-07-21T07:56:52.974Z,21.84
2018-07-21T07:58:01.878Z,21.84
2018-07-21T07:59:10.794Z,21.88
2018-07-21T08:00:19.454Z,21.85
2018-07-21T08:01:28.104Z,21.94
2018-07-21T08:02:36.759Z,21.96
2018-07-21T08:03:45.401Z,22.03
2018-07-21T08:04:54.056Z,22.06
2018-07-21T08:06:02.701Z,22.14
2018-07-21T08:07:11.360Z,22.07
2018-07-21T08:08:20.035Z,22.16
2018-07-21T08:09:28.657Z,22.21
2018-07-21T08:10:37.566Z,22.25
2018-07-21T08:11:46.222Z,22.38
2018-07-21T08:12:54.869Z,22.44
2018-07-21T08:14:03.545Z,22.46
2018-07-21T08:15:12.463Z,22.55
2018-07-21T08:16:21.114Z,22.62
2018-07-21T08:17:29.771Z,22.56
2018-07-21T08:18:38.681Z,22.65
2018-07-21T08:19:47.326Z,22.59
2018-07-21T08:20:55.975Z,22.67
2018-07-21T08:22:04.629Z,22.77
2018-07-21T08:23:13.282Z,22.84
2018-07-21T08:24:21.932Z,22.91
2018-07-21T08:25:30.579Z,22.89
2018-07-21T08:26:39.505Z,22.96
2018-07-21T08:27:48.149Z,23.08
2018-07-21T08:28:56.834Z,23.14
2018-07-21T08:30:05.446Z,23.28
2018-07-21T08:31:14.100Z,23.28
2018-07-21T08:32:22.749Z,23.2
2018-07-21T08:33:31.403Z,23.32
2018-07-21T08:34:40.093Z,23.36
2018-07-21T08:35:49.067Z,23.26
2018-07-21T08:36:57.719Z,23.4
2018-07-21T08:38:06.379Z,23.45
2018-07-21T08:39:15.032Z,23.48
2018-07-21T08:40:23.679Z,23.47
2018-07-21T08:41:32.329Z,23.51
2018-07-21T08:42:41.257Z,23.56
2018-07-21T08:43:49.911Z,23.45
2018-07-21T08:44:58.560Z,23.55
2018-07-21T08:46:07.473Z,23.55
2018-07-21T08:47:16.125Z,23.59
2018-07-21T08:48:24.787Z,23.51
2018-07-21T08:49:33.701Z,23.58
2018-07-21T08:50:42.355Z,23.59
2018-07-21T08:51:51.271Z,23.81
2018-07-21T08:52:59.923Z,23.77
2018-07-21T08:54:08.571Z,23.94
2018-07-21T08:55:17.488Z,24.03
2018-07-21T08:56:26.141Z,24.07
2018-07-21T08:57:35.062Z,24.14
2018-07-21T08:58:43.718Z,24.1
2018-07-21T08:59:52.638Z,24.07
2018-07-21T09:01:01.290Z,24.11
2018-07-21T09:02:09.935Z,24.13
2018-07-21T09:03:18.592Z,24.18
2018-07-21T09:04:27.250Z,24.1
2018-07-21T09:05:35.928Z,24.09
2018-07-21T09:06:44.549Z,24.11
2018-07-21T09:07:53.209Z,24.1
2018-07-21T09:09:02.457Z,24.13
2018-07-21T09:10:11.393Z,24.13
2018-07-21T09:11:20.315Z,24.18
2018-07-21T09:12:28.967Z,24.07
2018-07-21T09:13:37.618Z,24.09
2018-07-21T09:14:46.264Z,24.13
2018-07-21T09:15:54.919Z,24.14
2018-07-21T09:17:03.577Z,24.18
2018-07-21T09:18:12.227Z,24.18
2018-07-21T09:19:20.877Z,24.25
2018-07-21T09:20:29.529Z,24.28
2018-07-21T09:21:38.275Z,24.29
2018-07-21T09:22:46.834Z,24.28
2018-07-21T09:23:55.489Z,24.36
2018-07-21T09:25:04.405Z,24.37
2018-07-21T09:26:13.067Z,24.46
2018-07-21T09:27:21.709Z,24.48
2018-07-21T09:28:30.362Z,24.51
2018-07-21T09:29:39.013Z,24.43
2018-07-21T09:30:47.670Z,24.5
2018-07-21T09:31:56.320Z,24.66
2018-07-21T09:33:04.974Z,24.66
2018-07-21T09:34:13.971Z,24.61
2018-07-21T09:35:22.613Z,24.65
2018-07-21T09:36:31.265Z,24.75
2018-07-21T09:37:39.916Z,24.79
2018-07-21T09:38:48.834Z,24.84
2018-07-21T09:39:57.741Z,24.84
2018-07-21T09:41:06.395Z,25
2018-07-21T09:42:15.050Z,25.15
2018-07-21T09:43:23.705Z,25.19
2018-07-21T09:44:32.353Z,25.3
2018-07-21T09:45:41.008Z,25.31
2018-07-21T09:46:49.661Z,25.46
2018-07-21T09:47:58.322Z,25.49
2018-07-21T09:49:07.027Z,25.46
2018-07-21T09:50:15.628Z,25.66
2018-07-21T09:51:24.274Z,25.59
2018-07-21T09:52:32.931Z,25.49
2018-07-21T09:53:41.583Z,25.46
2018-07-21T09:54:50.235Z,25.49
2018-07-21T09:55:58.895Z,25.54
2018-07-21T09:57:07.539Z,25.52
2018-07-21T09:58:16.196Z,25.49
2018-07-21T09:59:24.851Z,25.46
2018-07-21T10:00:33.504Z,25.54
2018-07-21T10:01:42.419Z,25.49
2018-07-21T10:02:51.074Z,25.49
2018-07-21T10:03:59.729Z,25.52
2018-07-21T10:05:08.382Z,25.52
2018-07-21T10:06:17.032Z,25.49
2018-07-21T10:07:25.685Z,25.59
2018-07-21T10:08:34.605Z,25.7
2018-07-21T10:09:43.263Z,25.8
2018-07-21T10:10:51.916Z,25.85
2018-07-21T10:12:00.560Z,25.98
2018-07-21T10:13:09.484Z,26.11
2018-07-21T10:14:18.132Z,26.06
2018-07-21T10:15:26.848Z,26.18
2018-07-21T10:16:35.445Z,26.26
2018-07-21T10:17:44.104Z,26.24
2018-07-21T10:18:52.753Z,26.33
2018-07-21T10:20:01.414Z,26.27
2018-07-21T10:21:10.058Z,26.34
2018-07-21T10:22:19.048Z,26.26
2018-07-21T10:23:27.895Z,26.31
2018-07-21T10:24:36.557Z,26.34
2018-07-21T10:25:45.208Z,26.3
2018-07-21T10:26:53.857Z,26.45
2018-07-21T10:28:02.510Z,26.44
2018-07-21T10:29:11.160Z,26.53
2018-07-21T10:30:19.890Z,26.48
2018-07-21T10:31:28.476Z,26.6
2018-07-21T10:32:37.134Z,26.68
2018-07-21T10:33:45.778Z,26.78
2018-07-21T10:34:54.445Z,26.7
2018-07-21T10:36:03.166Z,26.86
2018-07-21T10:37:11.752Z,26.93
2018-07-21T10:38:20.395Z,27
2018-07-21T10:39:29.058Z,27.03
2018-07-21T10:40:37.710Z,27.2
2018-07-21T10:41:46.365Z,27.2
2018-07-21T10:42:55.009Z,27.29
2018-07-21T10:44:03.664Z,27.18
2018-07-21T10:45:12.322Z,27.29
2018-07-21T10:46:20.979Z,27.4
2018-07-21T10:47:29.636Z,27.43
2018-07-21T10:48:38.282Z,27.57
2018-07-21T10:49:46.948Z,27.58
2018-07-21T10:50:55.857Z,27.58
2018-07-21T10:52:04.523Z,27.52
2018-07-21T10:53:13.166Z,27.48
2018-07-21T10:54:21.825Z,27.47
2018-07-21T10:55:30.474Z,27.45
2018-07-21T10:56:39.136Z,27.4
2018-07-21T10:57:47.781Z,27.28
2018-07-21T10:58:56.447Z,27.37
2018-07-21T11:00:05.101Z,27.4
2018-07-21T11:01:13.762Z,27.52
2018-07-21T11:02:22.414Z,27.53
2018-07-21T11:03:31.060Z,27.61
2018-07-21T11:04:39.714Z,27.72
2018-07-21T11:05:48.365Z,27.72
2018-07-21T11:06:57.028Z,27.75
2018-07-21T11:08:05.731Z,27.83
2018-07-21T11:09:14.953Z,27.9
2018-07-21T11:10:23.600Z,27.95
2018-07-21T11:11:32.260Z,28
2018-07-21T11:12:40.914Z,27.94
2018-07-21T11:13:49.568Z,27.86
2018-07-21T11:14:58.216Z,27.78
2018-07-21T11:16:07.150Z,27.78
2018-07-21T11:17:15.801Z,27.75
2018-07-21T11:18:24.462Z,27.79
2018-07-21T11:19:33.107Z,27.78
2018-07-21T11:20:41.765Z,27.85
2018-07-21T11:21:50.962Z,27.9
2018-07-21T11:22:59.895Z,27.93
2018-07-21T11:24:08.554Z,28.08
2018-07-21T11:25:17.200Z,28.1
2018-07-21T11:26:25.853Z,28.27
2018-07-21T11:27:34.774Z,28.33
2018-07-21T11:28:43.432Z,28.46
2018-07-21T11:29:52.083Z,28.35
2018-07-21T11:31:00.737Z,28.47
2018-07-21T11:32:09.392Z,28.52
2018-07-21T11:33:18.053Z,28.53
2018-07-21T11:34:26.702Z,28.49
2018-07-21T11:35:35.488Z,28.43
2018-07-21T11:36:44.285Z,28.41
2018-07-21T11:37:52.945Z,28.43
2018-07-21T11:39:01.875Z,28.45
2018-07-21T11:40:10.528Z,28.5
2018-07-21T11:41:19.180Z,28.6
2018-07-21T11:42:27.830Z,28.56
2018-07-21T11:43:36.493Z,28.56
2018-07-21T11:44:45.412Z,28.5
2018-07-21T11:45:54.067Z,28.49
2018-07-21T11:47:02.988Z,28.62
2018-07-21T11:48:11.649Z,28.46
2018-07-21T11:49:20.304Z,28.5
2018-07-21T11:50:28.959Z,28.38
2018-07-21T11:51:37.608Z,28.43
2018-07-21T11:52:46.268Z,28.4
2018-07-21T11:53:54.920Z,28.46
2018-07-21T11:55:03.581Z,28.5
2018-07-21T11:56:12.226Z,28.37
2018-07-21T11:57:20.882Z,28.28
2018-07-21T11:58:29.539Z,28.34
2018-07-21T11:59:38.198Z,28.47
2018-07-21T12:00:46.855Z,28.46
2018-07-21T12:01:55.577Z,28.53
2018-07-21T12:03:04.171Z,28.5
2018-07-21T12:04:13.088Z,28.45
2018-07-21T12:05:21.763Z,28.49
2018-07-21T12:06:30.791Z,28.6
2018-07-21T12:07:39.449Z,28.64
2018-07-21T12:08:48.099Z,28.67
2018-07-21T12:09:56.766Z,28.7
2018-07-21T12:11:05.411Z,28.8
2018-07-21T12:12:14.070Z,28.77
2018-07-21T12:13:22.778Z,28.78
2018-07-21T12:14:31.389Z,28.75
2018-07-21T12:15:40.042Z,28.78
2018-07-21T12:16:48.690Z,28.8
2018-07-21T12:17:57.606Z,28.86
2018-07-21T12:19:06.522Z,28.87
2018-07-21T12:20:15.249Z,28.89
2018-07-21T12:21:23.836Z,29.1
2018-07-21T12:22:32.498Z,29.03
2018-07-21T12:23:41.142Z,29.07
2018-07-21T12:24:49.807Z,29.06
2018-07-21T12:25:58.461Z,28.96
2018-07-21T12:27:07.383Z,28.97
2018-07-21T12:28:16.031Z,29
2018-07-21T12:29:24.694Z,29.07
2018-07-21T12:30:33.609Z,29.31
2018-07-21T12:31:42.527Z,29.25
2018-07-21T12:32:51.173Z,29.31
2018-07-21T12:33:59.831Z,29.4
2018-07-21T12:35:08.760Z,29.55
2018-07-21T12:36:17.417Z,29.53
2018-07-21T12:37:26.074Z,29.77
2018-07-21T12:38:34.721Z,29.67
2018-07-21T12:39:43.382Z,29.74
2018-07-21T12:40:52.035Z,29.74
2018-07-21T12:42:00.699Z,29.81
2018-07-21T12:43:09.345Z,29.79
2018-07-21T12:44:18.277Z,29.87
2018-07-21T12:45:26.930Z,29.74
2018-07-21T12:46:35.595Z,29.74
2018-07-21T12:47:44.244Z,29.8
2018-07-21T12:48:52.903Z,29.74
2018-07-21T12:50:01.555Z,29.68
2018-07-21T12:51:10.220Z,29.67
2018-07-21T12:52:19.139Z,29.8
2018-07-21T12:53:27.800Z,29.79
2018-07-21T12:54:36.723Z,29.9
2018-07-21T12:55:45.371Z,29.92
2018-07-21T12:56:54.040Z,29.87
2018-07-21T12:58:02.689Z,29.89
2018-07-21T12:59:11.349Z,29.87
2018-07-21T13:00:19.989Z,29.94
2018-07-21T13:01:28.921Z,29.92
2018-07-21T13:02:37.573Z,29.89
2018-07-21T13:03:46.234Z,29.86
2018-07-21T13:04:54.892Z,29.9
2018-07-21T13:06:03.538Z,29.83
2018-07-21T13:07:12.456Z,29.74
2018-07-21T13:08:21.109Z,29.76
2018-07-21T13:09:29.771Z,29.68
2018-07-21T13:10:38.425Z,29.74
2018-07-21T13:11:47.074Z,29.79
2018-07-21T13:12:55.729Z,29.81
2018-07-21T13:14:04.383Z,29.9
2018-07-21T13:15:13.308Z,30.03
2018-07-21T13:16:21.956Z,30.05
2018-07-21T13:17:30.614Z,30.2
2018-07-21T13:18:39.261Z,30.17
2018-07-21T13:19:48.010Z,30.24
2018-07-21T13:20:56.587Z,30.31
2018-07-21T13:22:05.248Z,30.35
2018-07-21T13:23:13.898Z,30.29
2018-07-21T13:24:22.561Z,30.44
2018-07-21T13:25:31.214Z,30.39
2018-07-21T13:26:39.873Z,30.43
2018-07-21T13:27:49.061Z,30.4
2018-07-21T13:28:57.724Z,30.31
2018-07-21T13:30:06.649Z,30.31
2018-07-21T13:31:15.313Z,30.36
2018-07-21T13:32:23.971Z,30.39
2018-07-21T13:33:32.619Z,30.46
2018-07-21T13:34:41.552Z,30.49
2018-07-21T13:35:50.204Z,30.48
2018-07-21T13:36:58.884Z,30.49
2018-07-21T13:38:07.853Z,30.46
2018-07-21T13:39:16.514Z,30.59
2018-07-21T13:40:25.166Z,30.63
2018-07-21T13:41:33.832Z,30.65
2018-07-21T13:42:42.480Z,30.55
2018-07-21T13:43:51.139Z,30.51
2018-07-21T13:44:59.795Z,30.43
2018-07-21T13:46:08.460Z,30.38
2018-07-21T13:47:17.382Z,30.38
2018-07-21T13:48:26.040Z,30.33
2018-07-21T13:49:34.689Z,30.38
2018-07-21T13:50:43.344Z,30.48
2018-07-21T13:51:52.013Z,30.54
2018-07-21T13:53:00.926Z,30.59
2018-07-21T13:54:09.587Z,30.76
2018-07-21T13:55:18.234Z,30.85
2018-07-21T13:56:26.899Z,30.92
2018-07-21T13:57:35.551Z,31.08
2018-07-21T13:58:44.474Z,31.05
2018-07-21T13:59:53.133Z,31.02
2018-07-21T14:01:02.059Z,31.05
2018-07-21T14:02:10.743Z,31.2
2018-07-21T14:03:19.375Z,31.23
2018-07-21T14:04:28.038Z,31.14
2018-07-21T14:05:36.697Z,31.15
2018-07-21T14:06:45.356Z,31.23
2018-07-21T14:07:54.017Z,31.14
2018-07-21T14:09:02.675Z,31.22
2018-07-21T14:10:11.368Z,31.14
2018-07-21T14:11:19.987Z,31.22
2018-07-21T14:12:28.910Z,31.15
2018-07-21T14:13:37.570Z,31.11
2018-07-21T14:14:46.488Z,30.98
2018-07-21T14:15:55.218Z,30.93
2018-07-21T14:17:03.810Z,30.95
2018-07-21T14:18:12.463Z,30.91
2018-07-21T14:19:21.116Z,30.83
2018-07-21T14:20:29.779Z,30.95
2018-07-21T14:21:38.700Z,30.8
2018-07-21T14:22:47.356Z,30.8
2018-07-21T14:23:56.118Z,30.78
2018-07-21T14:25:04.948Z,30.73
2018-07-21T14:26:13.605Z,30.63
2018-07-21T14:27:22.261Z,30.48
2018-07-21T14:28:31.181Z,30.43
2018-07-21T14:29:39.959Z,30.38
2018-07-21T14:30:48.901Z,30.16
2018-07-21T14:31:57.553Z,30.03
2018-07-21T14:33:06.214Z,29.94
2018-07-21T14:34:15.140Z,29.92
2018-07-21T14:35:23.807Z,29.98
2018-07-21T14:36:32.846Z,29.99
2018-07-21T14:37:41.383Z,29.95
2018-07-21T14:38:50.039Z,29.84
2018-07-21T14:39:58.698Z,29.67
2018-07-21T14:41:07.621Z,29.68
2018-07-21T14:42:16.279Z,29.69
2018-07-21T14:43:24.936Z,29.69
2018-07-21T14:44:33.861Z,29.83
2018-07-21T14:45:42.518Z,29.83
2018-07-21T14:46:51.172Z,29.9
2018-07-21T14:47:59.828Z,29.98